Time;durP1;ratioP1;P1;durP2;ratioP2;P2;SDS_P1;SDS_P2;PMS_P1;PMS_P2;Temp;Humidity;BMP_temperature;BMP_pressure;BME280_temperature;BME280_humidity;BME280_pressure;Samples;Min_cycle;Max_cycle;Signal;HPM_P1;HPM_P2
2023/10/01 00:00:29;;;;;;;18.10;4.90;;;16.90;99.90;;;;;;5073900;28;20116;-70
2023/10/01 00:02:56;;;;;;;15.80;4.38;;;16.90;99.90;;;;;;5073594;28;20091;-71
2023/10/01 00:05:23;;;;;;;14.65;4.65;;;17.00;99.90;;;;;;5073011;28;20041;-71
2023/10/01 00:07:51;;;;;;;11.52;4.28;;;16.90;99.90;;;;;;5073726;28;20020;-71
2023/10/01 00:10:17;;;;;;;15.93;4.95;;;16.90;99.90;;;;;;5073902;28;20023;-71
2023/10/01 00:12:46;;;;;;;13.82;4.60;;;16.90;99.90;;;;;;5073695;28;20025;-71
2023/10/01 00:15:14;;;;;;;15.35;4.47;;;16.80;99.90;;;;;;5073414;28;20478;-71
2023/10/01 00:17:40;;;;;;;14.55;4.63;;;16.90;99.90;;;;;;5071565;28;20044;-71
2023/10/01 00:20:23;;;;;;;14.60;4.75;;;16.80;99.90;;;;;;5073135;28;20071;-71
2023/10/01 00:22:57;;;;;;;14.60;4.38;;;16.90;99.90;;;;;;5073045;28;20493;-71
2023/10/01 00:25:23;;;;;;;12.93;4.80;;;16.80;99.90;;;;;;5066202;28;20021;-71
2023/10/01 00:27:50;;;;;;;14.82;4.63;;;16.80;99.90;;;;;;5072859;28;20074;-71
2023/10/01 00:30:16;;;;;;;15.73;5.00;;;16.90;99.90;;;;;;5073154;28;20019;-71
2023/10/01 00:32:42;;;;;;;16.92;4.80;;;16.90;99.90;;;;;;5072922;28;20020;-71
2023/10/01 00:35:10;;;;;;;12.82;4.45;;;16.80;99.90;;;;;;5072936;28;20021;-71
2023/10/01 00:37:36;;;;;;;14.98;4.53;;;16.80;99.90;;;;;;5062842;28;20028;-71
2023/10/01 00:40:06;;;;;;;16.30;4.93;;;16.80;99.90;;;;;;5072889;28;20025;-71
2023/10/01 00:42:35;;;;;;;13.43;4.50;;;16.80;99.90;;;;;;5072582;28;20017;-71
2023/10/01 00:45:02;;;;;;;17.13;5.10;;;16.70;99.90;;;;;;5071942;28;20033;-71
2023/10/01 00:47:30;;;;;;;12.15;4.60;;;16.70;99.90;;;;;;5072375;28;20379;-71
2023/10/01 00:49:57;;;;;;;14.88;4.55;;;16.70;99.90;;;;;;5073136;28;20027;-71
2023/10/01 00:52:23;;;;;;;15.82;4.65;;;16.70;99.90;;;;;;5066745;28;20028;-71
2023/10/01 00:54:51;;;;;;;15.73;4.65;;;16.70;99.90;;;;;;5072338;28;20017;-71
2023/10/01 00:57:17;;;;;;;11.35;4.25;;;16.70;99.90;;;;;;5072487;28;20514;-71
2023/10/01 00:59:46;;;;;;;17.27;4.80;;;16.60;99.90;;;;;;5072505;28;20056;-71
2023/10/01 01:02:15;;;;;;;16.98;4.50;;;16.60;99.90;;;;;;5058002;28;20463;-71
2023/10/01 01:04:44;;;;;;;13.57;4.53;;;16.60;99.90;;;;;;5072220;28;20032;-71
2023/10/01 01:07:19;;;;;;;13.80;4.47;;;16.60;99.90;;;;;;5071763;28;20090;-71
2023/10/01 01:09:48;;;;;;;;;;;16.60;99.90;;;;;;5072975;28;20040;-71
2023/10/01 01:12:15;;;;;;;13.73;4.65;;;16.60;99.90;;;;;;5072393;28;19954;-71
2023/10/01 01:14:44;;;;;;;12.43;4.30;;;16.50;99.90;;;;;;5072272;28;20047;-71
2023/10/01 01:17:13;;;;;;;12.98;4.07;;;16.50;99.90;;;;;;5072461;28;20108;-71
2023/10/01 01:19:41;;;;;;;15.20;4.57;;;16.50;99.90;;;;;;5072224;28;20025;-71
2023/10/01 01:22:09;;;;;;;16.35;4.95;;;16.50;99.90;;;;;;5072420;28;20626;-71
2023/10/01 01:24:36;;;;;;;14.55;4.60;;;16.50;99.90;;;;;;5070209;28;20021;-71
2023/10/01 01:27:06;;;;;;;15.38;4.70;;;16.40;99.90;;;;;;5071900;28;20078;-71
2023/10/01 01:29:40;;;;;;;13.85;4.65;;;16.40;99.90;;;;;;5072273;28;20039;-71
2023/10/01 01:32:08;;;;;;;16.50;4.70;;;16.40;99.90;;;;;;5071917;28;20475;-71
2023/10/01 01:34:37;;;;;;;18.17;4.82;;;16.40;99.90;;;;;;5071737;28;20091;-71
2023/10/01 01:37:05;;;;;;;19.65;4.93;;;16.40;99.90;;;;;;5071584;28;20036;-71
2023/10/01 01:39:48;;;;;;;15.95;4.97;;;16.40;99.90;;;;;;5071955;28;20029;-71
2023/10/01 01:42:19;;;;;;;14.30;4.90;;;16.50;99.90;;;;;;5071523;28;20024;-71
2023/10/01 01:44:45;;;;;;;18.88;5.40;;;16.50;99.90;;;;;;5071602;28;20024;-71
2023/10/01 01:47:10;;;;;;;16.92;5.20;;;16.50;99.90;;;;;;5071523;28;20364;-71
2023/10/01 01:49:40;;;;;;;20.38;5.25;;;16.50;99.90;;;;;;5071712;28;20024;-71
2023/10/01 01:52:06;;;;;;;12.80;4.75;;;16.50;99.90;;;;;;5071290;28;20013;-71
2023/10/01 01:54:39;;;;;;;20.10;6.05;;;16.60;99.90;;;;;;5071674;28;20024;-71
2023/10/01 01:57:13;;;;;;;18.90;5.22;;;16.60;99.90;;;;;;5070203;28;20028;-71
2023/10/01 01:59:41;;;;;;;16.13;5.22;;;16.60;99.90;;;;;;5082287;28;20485;-71
2023/10/01 02:02:09;;;;;;;17.95;6.00;;;16.60;99.90;;;;;;5071477;28;20360;-71
2023/10/01 02:04:58;;;;;;;14.85;5.20;;;16.60;99.90;;;;;;5067014;28;20051;-71
2023/10/01 02:07:22;;;;;;;19.98;5.80;;;16.60;99.90;;;;;;5070216;28;20055;-71
2023/10/01 02:09:48;;;;;;;15.02;5.63;;;16.70;99.90;;;;;;5071356;28;20499;-71
2023/10/01 02:12:23;;;;;;;16.92;5.70;;;16.70;99.90;;;;;;5070978;28;20023;-71
2023/10/01 02:14:53;;;;;;;15.98;5.78;;;16.70;99.90;;;;;;5070007;28;20024;-71
2023/10/01 02:17:22;;;;;;;18.88;5.75;;;16.70;99.90;;;;;;5064150;28;20039;-71
2023/10/01 02:19:48;;;;;;;17.15;5.95;;;16.70;99.90;;;;;;5066398;28;20038;-70
2023/10/01 02:22:16;;;;;;;16.92;5.72;;;16.70;99.90;;;;;;5064734;28;20456;-71
2023/10/01 02:27:15;;;;;;;20.67;5.93;;;16.80;99.90;;;;;;5070922;28;20036;-71
2023/10/01 02:32:28;;;;;;;18.42;6.30;;;16.80;99.90;;;;;;5071373;28;20031;-71
2023/10/01 02:34:56;;;;;;;13.85;5.38;;;16.70;99.90;;;;;;5070934;28;20017;-71
2023/10/01 02:37:29;;;;;;;16.27;5.82;;;16.70;99.90;;;;;;5071172;28;20031;-71
2023/10/01 02:39:56;;;;;;;16.52;6.00;;;16.70;99.90;;;;;;5071375;28;20122;-71
2023/10/01 02:42:22;;;;;;;24.23;6.00;;;16.70;99.90;;;;;;5053198;28;20726;-71
2023/10/01 02:44:48;;;;;;;20.40;6.22;;;16.70;99.90;;;;;;5066193;28;20095;-71
2023/10/01 02:47:18;;;;;;;23.20;6.20;;;16.70;99.90;;;;;;5071121;28;20013;-71
2023/10/01 02:49:49;;;;;;;18.10;5.78;;;16.70;99.90;;;;;;5070892;28;20024;-71
2023/10/01 02:52:22;;;;;;;16.98;6.40;;;16.70;99.90;;;;;;5070643;28;20115;-71
2023/10/01 02:54:54;;;;;;;21.58;6.05;;;16.70;99.90;;;;;;5070733;28;20021;-71
2023/10/01 02:57:26;;;;;;;24.60;6.38;;;16.70;99.90;;;;;;5070981;28;20032;-71
2023/10/01 03:02:57;;;;;;;21.50;6.78;;;16.70;99.90;;;;;;5067931;28;20107;-71
2023/10/01 03:07:51;;;;;;;21.38;6.82;;;16.70;99.90;;;;;;5070996;28;20072;-71
2023/10/01 03:10:27;;;;;;;18.05;6.18;;;16.70;99.90;;;;;;5056174;28;20049;-71
2023/10/01 03:12:53;;;;;;;;;;;16.70;99.90;;;;;;5071316;28;20606;-71
2023/10/01 03:15:25;;;;;;;19.85;6.30;;;16.70;99.90;;;;;;5070564;28;19911;-71
2023/10/01 03:17:56;;;;;;;19.17;6.18;;;16.70;99.90;;;;;;5070620;28;20093;-71
2023/10/01 03:23:35;;;;;;;17.17;6.45;;;16.70;99.90;;;;;;5065828;28;20031;-71
2023/10/01 03:26:08;;;;;;;21.55;6.38;;;16.70;99.90;;;;;;5074110;28;20036;-71
2023/10/01 03:31:24;;;;;;;20.50;7.40;;;16.70;99.90;;;;;;5074496;28;20031;-71
2023/10/01 03:33:58;;;;;;;14.45;5.93;;;16.70;99.90;;;;;;5074246;28;20027;-71
2023/10/01 03:36:25;;;;;;;14.03;4.80;;;16.80;99.90;;;;;;5074012;28;20028;-71
2023/10/01 03:38:59;;;;;;;17.23;6.53;;;16.80;99.90;;;;;;5074232;28;20078;-71
2023/10/01 03:41:27;;;;;;;23.08;7.13;;;16.80;99.90;;;;;;5074027;28;20070;-71
2023/10/01 03:44:08;;;;;;;24.08;6.85;;;16.80;99.90;;;;;;5074342;28;20024;-71
2023/10/01 03:46:42;;;;;;;22.95;7.13;;;16.80;99.90;;;;;;5073979;28;20032;-71
2023/10/01 03:51:52;;;;;;;19.10;6.63;;;16.80;99.90;;;;;;5072171;28;20514;-71
2023/10/01 03:54:52;;;;;;;17.45;6.45;;;16.80;99.90;;;;;;5064017;28;20028;-71
2023/10/01 03:57:11;;;;;;;19.58;6.78;;;16.80;99.90;;;;;;5070849;28;20064;-71
2023/10/01 03:59:40;;;;;;;17.92;6.72;;;16.80;99.90;;;;;;5071806;28;20111;-71
2023/10/01 04:02:27;;;;;;;20.55;6.57;;;16.80;99.90;;;;;;5074008;28;20020;-71
2023/10/01 04:04:57;;;;;;;16.60;6.07;;;16.80;99.90;;;;;;5062340;28;20380;-71
2023/10/01 04:07:40;;;;;;;23.38;7.30;;;16.80;99.90;;;;;;5073501;28;20064;-71
2023/10/01 04:10:13;;;;;;;20.98;6.82;;;16.80;99.90;;;;;;5063365;28;20025;-71
2023/10/01 04:12:49;;;;;;;18.45;6.55;;;16.80;99.90;;;;;;5073049;28;20032;-71
2023/10/01 04:15:54;;;;;;;22.27;6.95;;;16.80;99.90;;;;;;5073768;28;20043;-71
2023/10/01 04:23:30;;;;;;;24.58;6.90;;;16.90;99.90;;;;;;5073668;28;20447;-71
2023/10/01 04:26:05;;;;;;;20.45;7.30;;;16.90;99.90;;;;;;5072928;28;20024;-71
2023/10/01 04:28:35;;;;;;;18.30;6.78;;;16.90;99.90;;;;;;5073388;28;20027;-71
2023/10/01 04:31:08;;;;;;;23.45;6.88;;;16.90;99.90;;;;;;5072997;28;20025;-71
2023/10/01 04:33:34;;;;;;;21.13;6.82;;;16.90;99.90;;;;;;5073062;28;20017;-71
2023/10/01 04:36:01;;;;;;;24.42;6.70;;;16.90;99.90;;;;;;5072158;28;20509;-71
2023/10/01 04:38:29;;;;;;;22.60;7.10;;;16.90;99.90;;;;;;5073181;28;20108;-71
2023/10/01 04:40:55;;;;;;;19.13;6.90;;;16.90;99.90;;;;;;5072949;28;20021;-71
2023/10/01 04:43:21;;;;;;;18.88;6.85;;;16.90;99.90;;;;;;5073059;28;20017;-71
2023/10/01 04:45:52;;;;;;;20.85;6.72;;;17.00;99.90;;;;;;5072766;28;20364;-71
2023/10/01 04:48:24;;;;;;;21.42;6.43;;;17.00;99.90;;;;;;5072931;28;20047;-71
2023/10/01 04:50:55;;;;;;;20.30;7.22;;;16.90;99.90;;;;;;5072595;28;20048;-71
2023/10/01 04:53:22;;;;;;;18.60;6.78;;;16.90;99.90;;;;;;5072312;28;20671;-71
2023/10/01 04:56:00;;;;;;;21.33;7.32;;;17.00;99.90;;;;;;5072408;28;20020;-71
2023/10/01 04:58:32;;;;;;;20.20;7.43;;;16.90;99.90;;;;;;5072385;28;20377;-71
2023/10/01 05:00:58;;;;;;;19.10;6.80;;;16.90;99.90;;;;;;5072715;28;20038;-71
2023/10/01 05:03:48;;;;;;;17.25;7.00;;;16.90;99.90;;;;;;5072490;28;20016;-71
2023/10/01 05:06:12;;;;;;;18.83;7.53;;;16.90;99.90;;;;;;5071720;28;20055;-71
2023/10/01 05:08:39;;;;;;;20.52;6.72;;;17.00;99.90;;;;;;5072289;28;20032;-71
2023/10/01 05:11:10;;;;;;;18.88;6.95;;;16.90;99.90;;;;;;5071919;28;20024;-71
2023/10/01 05:13:42;;;;;;;23.75;7.75;;;16.90;99.90;;;;;;5072411;28;20521;-71
2023/10/01 05:16:12;;;;;;;21.63;7.65;;;16.90;99.90;;;;;;5072147;28;20020;-71
2023/10/01 05:18:45;;;;;;;22.80;7.55;;;16.90;99.90;;;;;;5072538;28;20394;-71
2023/10/01 05:21:18;;;;;;;19.60;7.28;;;16.90;99.90;;;;;;5069413;28;20025;-71
2023/10/01 05:23:45;;;;;;;21.55;7.57;;;17.00;99.90;;;;;;5072051;28;20150;-71
2023/10/01 05:26:11;;;;;;;23.83;7.85;;;16.90;99.90;;;;;;5070287;28;20043;-71
2023/10/01 05:28:41;;;;;;;22.58;7.65;;;16.90;99.90;;;;;;5071765;28;20392;-71
2023/10/01 05:31:24;;;;;;;19.17;7.93;;;16.90;99.90;;;;;;5071702;28;20028;-71
2023/10/01 05:33:58;;;;;;;20.95;7.80;;;16.90;99.90;;;;;;5072016;28;20037;-71
2023/10/01 05:36:24;;;;;;;16.67;7.30;;;16.90;99.90;;;;;;5071977;28;20016;-71
2023/10/01 05:38:51;;;;;;;21.38;7.80;;;16.90;99.90;;;;;;5072064;28;20032;-71
2023/10/01 05:41:29;;;;;;;22.38;7.63;;;16.90;99.90;;;;;;5071527;28;20384;-71
2023/10/01 05:43:55;;;;;;;20.73;8.05;;;16.90;99.90;;;;;;5071743;28;20360;-71
2023/10/01 05:46:27;;;;;;;21.67;8.02;;;16.90;99.90;;;;;;5070652;28;20564;-71
2023/10/01 05:48:55;;;;;;;24.55;8.38;;;16.90;99.90;;;;;;5071602;28;20035;-71
2023/10/01 05:51:30;;;;;;;26.35;8.38;;;16.90;99.90;;;;;;5071743;28;20030;-71
2023/10/01 05:53:56;;;;;;;17.08;7.22;;;16.90;99.90;;;;;;5059225;28;20027;-71
2023/10/01 05:56:23;;;;;;;21.85;7.53;;;16.90;99.90;;;;;;5071590;28;20108;-71
2023/10/01 05:58:50;;;;;;;21.25;8.07;;;16.80;99.90;;;;;;5070488;28;20562;-71
2023/10/01 06:01:17;;;;;;;19.90;7.68;;;16.90;99.90;;;;;;5071887;28;20044;-71
2023/10/01 06:03:45;;;;;;;19.95;8.02;;;16.90;99.90;;;;;;5071186;28;20020;-71
2023/10/01 06:06:14;;;;;;;20.08;8.10;;;16.90;99.90;;;;;;5071028;28;20136;-71
2023/10/01 06:08:49;;;;;;;21.38;7.72;;;16.90;99.90;;;;;;5071189;28;20020;-71
2023/10/01 06:11:15;;;;;;;;;;;16.90;99.90;;;;;;5070347;28;20551;-71
2023/10/01 06:13:51;;;;;;;18.92;7.43;;;16.90;99.90;;;;;;5071100;28;19995;-71
2023/10/01 06:16:22;;;;;;;23.58;8.25;;;16.80;99.90;;;;;;5071368;28;20017;-71
2023/10/01 06:18:52;;;;;;;20.98;8.73;;;16.80;99.90;;;;;;5071188;28;20032;-71
2023/10/01 06:21:26;;;;;;;20.85;8.25;;;16.80;99.90;;;;;;5070184;28;20029;-71
2023/10/01 06:23:53;;;;;;;21.08;8.40;;;16.80;99.90;;;;;;5071178;28;20374;-71
2023/10/01 06:26:33;;;;;;;22.92;8.27;;;16.80;99.90;;;;;;5071413;28;20039;-71
2023/10/01 06:29:02;;;;;;;26.48;8.98;;;16.80;99.90;;;;;;5071039;28;20085;-71
2023/10/01 06:31:28;;;;;;;26.35;8.45;;;16.70;99.90;;;;;;5070623;28;20017;-71
2023/10/01 06:33:54;;;;;;;27.58;9.15;;;16.70;99.90;;;;;;5071081;28;20406;-71
2023/10/01 06:36:21;;;;;;;20.13;8.45;;;16.70;99.90;;;;;;5070746;28;20012;-71
2023/10/01 06:38:48;;;;;;;27.38;9.40;;;16.70;99.90;;;;;;5071097;28;20037;-71
2023/10/01 06:41:19;;;;;;;25.40;8.93;;;16.70;99.90;;;;;;5070694;28;20471;-71
2023/10/01 06:43:49;;;;;;;25.88;9.27;;;16.60;99.90;;;;;;5070622;28;20352;-71
2023/10/01 06:46:28;;;;;;;26.45;9.80;;;16.60;99.90;;;;;;5070501;28;20025;-71
2023/10/01 06:48:58;;;;;;;28.58;9.27;;;16.60;99.90;;;;;;5067816;28;20357;-71
2023/10/01 06:51:26;;;;;;;24.13;9.75;;;16.60;99.90;;;;;;5069521;28;20078;-71
2023/10/01 06:53:59;;;;;;;21.35;9.25;;;16.60;99.90;;;;;;5060206;28;20150;-71
2023/10/01 06:56:29;;;;;;;28.30;9.07;;;16.60;99.90;;;;;;5065636;28;20460;-71
2023/10/01 06:59:13;;;;;;;24.05;9.82;;;16.70;99.90;;;;;;5072859;28;20043;-71
2023/10/01 07:01:46;;;;;;;20.92;8.93;;;16.70;99.90;;;;;;5072344;28;20032;-70
2023/10/01 07:04:17;;;;;;;24.98;9.60;;;16.70;99.90;;;;;;5064039;28;20044;-71
2023/10/01 07:06:44;;;;;;;22.00;9.13;;;16.70;99.90;;;;;;5070363;28;20742;-71
2023/10/01 07:09:32;;;;;;;22.55;9.82;;;16.70;99.90;;;;;;5074093;28;20020;-71
2023/10/01 07:12:02;;;;;;;22.13;9.00;;;16.60;99.90;;;;;;5070979;28;20028;-72
2023/10/01 07:14:44;;;;;;;21.15;9.75;;;16.70;99.90;;;;;;5074118;28;20028;-72
2023/10/01 07:17:14;;;;;;;24.17;10.52;;;16.70;99.90;;;;;;5074384;28;20078;-72
2023/10/01 07:19:41;;;;;;;24.25;10.15;;;16.70;99.90;;;;;;5066805;28;20031;-72
2023/10/01 07:22:07;;;;;;;22.13;9.30;;;16.70;99.90;;;;;;5072890;28;20028;-72
2023/10/01 07:24:33;;;;;;;21.60;10.07;;;16.70;99.90;;;;;;5073680;28;20100;-72
2023/10/01 07:27:06;;;;;;;23.63;9.52;;;16.80;99.90;;;;;;5074058;28;20021;-72
2023/10/01 07:29:36;;;;;;;22.92;9.70;;;16.80;99.90;;;;;;5070698;28;20024;-74
2023/10/01 07:32:06;;;;;;;23.98;9.43;;;16.80;99.90;;;;;;5073848;28;20017;-74
2023/10/01 07:34:32;;;;;;;24.60;9.77;;;16.80;99.90;;;;;;5073538;28;20024;-75
2023/10/01 07:36:59;;;;;;;20.98;9.88;;;16.80;99.90;;;;;;5073428;28;20070;-73
2023/10/01 07:39:30;;;;;;;20.98;9.70;;;16.90;99.90;;;;;;5073396;28;20474;-74
2023/10/01 07:41:59;;;;;;;25.83;10.23;;;16.90;99.90;;;;;;5073986;28;20021;-74
2023/10/01 07:44:24;;;;;;;21.98;9.80;;;16.90;99.90;;;;;;5072591;28;20647;-74
2023/10/01 07:46:51;;;;;;;25.38;10.02;;;17.00;99.90;;;;;;5074008;28;20063;-74
2023/10/01 07:49:18;;;;;;;23.30;9.98;;;17.10;99.90;;;;;;5070840;28;20016;-73
2023/10/01 07:51:48;;;;;;;25.35;10.15;;;17.20;99.90;;;;;;5071541;28;20048;-73
2023/10/01 07:54:22;;;;;;;27.20;9.68;;;17.30;99.90;;;;;;5072394;28;20025;-73
2023/10/01 07:56:49;;;;;;;24.00;9.65;;;17.50;99.90;;;;;;5072314;28;20029;-73
2023/10/01 07:59:33;;;;;;;26.88;9.05;;;17.60;99.90;;;;;;5071823;28;20502;-73
2023/10/01 08:04:50;;;;;;;23.70;9.05;;;17.80;99.90;;;;;;5072422;28;20079;-73
2023/10/01 08:07:17;;;;;;;23.67;10.00;;;17.90;99.90;;;;;;5072269;28;20438;-73
2023/10/01 08:09:51;;;;;;;20.75;9.13;;;18.00;99.90;;;;;;5072221;28;20052;-72
2023/10/01 08:12:56;;;;;;;22.23;9.50;;;18.10;99.90;;;;;;5073228;28;20047;-72
2023/10/01 08:15:29;;;;;;;26.40;10.50;;;18.10;99.90;;;;;;5073190;28;20028;-73
2023/10/01 08:20:59;;;;;;;25.02;9.63;;;18.30;99.90;;;;;;5073233;28;20077;-73
2023/10/01 08:23:28;;;;;;;25.95;9.70;;;18.30;99.90;;;;;;5071050;28;20016;-72
2023/10/01 08:25:55;;;;;;;22.35;10.05;;;18.40;99.90;;;;;;5072301;28;20043;-73
2023/10/01 08:30:49;;;;;;;22.92;10.00;;;18.50;99.90;;;;;;5073600;28;20048;-73
2023/10/01 08:33:32;;;;;;;25.23;9.82;;;18.60;99.90;;;;;;5065259;28;20414;-73
2023/10/01 08:36:01;;;;;;;22.73;9.43;;;18.60;99.90;;;;;;5072272;28;20061;-73
2023/10/01 08:38:34;;;;;;;22.60;9.80;;;18.70;99.90;;;;;;5072693;28;20043;-73
2023/10/01 08:41:02;;;;;;;23.83;9.35;;;18.70;99.90;;;;;;5072963;28;20028;-73
2023/10/01 08:43:35;;;;;;;21.92;9.50;;;18.70;99.90;;;;;;5072727;28;20023;-71
2023/10/01 08:46:19;;;;;;;23.33;9.80;;;18.80;99.90;;;;;;5072834;28;20348;-72
2023/10/01 08:48:45;;;;;;;22.35;8.88;;;18.80;99.90;;;;;;5070361;28;20032;-72
2023/10/01 08:51:12;;;;;;;24.27;10.15;;;18.90;99.90;;;;;;5071007;28;20024;-72
2023/10/01 08:53:41;;;;;;;22.23;9.88;;;19.00;99.90;;;;;;5072262;28;20024;-70
2023/10/01 08:56:13;;;;;;;21.77;9.32;;;19.10;99.90;;;;;;5072277;28;20019;-71
2023/10/01 08:58:48;;;;;;;22.23;9.65;;;19.30;99.90;;;;;;5072389;28;20182;-71
2023/10/01 09:01:15;;;;;;;23.17;10.15;;;19.50;99.90;;;;;;5072302;28;20151;-69
2023/10/01 09:03:52;;;;;;;22.80;9.85;;;19.60;99.90;;;;;;5072430;28;20419;-70
2023/10/01 09:06:24;;;;;;;24.88;9.35;;;19.80;99.90;;;;;;5072419;28;20682;-71
2023/10/01 09:08:59;;;;;;;23.50;9.27;;;20.00;99.90;;;;;;5072392;28;20391;-71
2023/10/01 09:11:47;;;;;;;20.77;9.02;;;20.10;99.90;;;;;;5072677;28;20032;-71
2023/10/01 09:14:17;;;;;;;25.83;9.68;;;20.30;99.90;;;;;;5071425;28;20060;-71
2023/10/01 09:16:49;;;;;;;22.00;9.30;;;20.40;99.90;;;;;;5071453;28;20451;-71
2023/10/01 09:19:34;;;;;;;19.27;9.05;;;20.50;99.90;;;;;;5072123;28;20032;-72
2023/10/01 09:22:22;;;;;;;22.02;8.85;;;20.70;99.90;;;;;;5071843;28;20036;-72
2023/10/01 09:25:01;;;;;;;24.17;9.27;;;20.90;99.90;;;;;;5070555;28;20064;-72
2023/10/01 09:27:30;;;;;;;21.88;8.75;;;20.90;99.90;;;;;;5072053;28;20462;-72
2023/10/01 09:32:51;;;;;;;21.10;8.82;;;21.10;99.90;;;;;;5068556;28;20078;-72
2023/10/01 09:35:30;;;;;;;19.83;8.60;;;21.20;99.90;;;;;;5072050;28;20488;-72
2023/10/01 09:38:10;;;;;;;20.38;8.95;;;21.40;99.90;;;;;;5071480;28;20123;-72
2023/10/01 09:40:43;;;;;;;23.42;9.32;;;21.50;99.90;;;;;;5071337;28;20078;-72
2023/10/01 09:43:18;;;;;;;23.30;8.57;;;21.60;99.90;;;;;;5068772;28;20452;-72
2023/10/01 09:45:49;;;;;;;18.38;8.45;;;21.70;99.90;;;;;;5062718;28;20025;-72
2023/10/01 09:48:30;;;;;;;18.13;8.57;;;21.70;99.90;;;;;;5071242;28;20032;-72
2023/10/01 09:51:15;;;;;;;21.42;8.45;;;21.80;99.90;;;;;;5063081;28;20048;-74
2023/10/01 09:53:44;;;;;;;24.33;8.50;;;22.00;99.90;;;;;;5069900;28;20021;-74
2023/10/01 09:56:27;;;;;;;20.42;8.40;;;22.10;99.90;;;;;;5071040;28;20254;-74
2023/10/01 09:59:11;;;;;;;21.25;8.65;;;22.20;99.90;;;;;;5071488;28;20036;-73
2023/10/01 10:01:38;;;;;;;18.83;8.23;;;22.30;99.90;;;;;;5071277;28;20383;-73
2023/10/01 10:04:12;;;;;;;18.60;8.75;;;22.50;99.90;;;;;;5058349;28;20052;-73
2023/10/01 10:06:39;;;;;;;22.05;9.25;;;22.60;99.90;;;;;;5059103;28;20072;-73
2023/10/01 10:09:10;;;;;;;25.10;8.32;;;22.70;99.90;;;;;;5071254;28;20021;-75
2023/10/01 10:11:40;;;;;;;21.80;9.02;;;22.70;99.90;;;;;;5071178;28;20135;-72
2023/10/01 10:14:26;;;;;;;19.75;9.00;;;22.80;99.90;;;;;;5071347;28;20052;-72
2023/10/01 10:19:57;;;;;;;21.13;8.93;;;22.90;99.90;;;;;;5060833;28;20430;-74
2023/10/01 10:22:25;;;;;;;23.90;8.95;;;22.90;99.90;;;;;;5071048;28;20027;-72
2023/10/01 10:25:20;;;;;;;20.48;8.95;;;23.00;99.90;;;;;;5071548;28;20055;-71
2023/10/01 10:27:47;;;;;;;19.92;8.45;;;23.00;99.90;;;;;;5068033;28;20375;-71
2023/10/01 10:30:16;;;;;;;20.20;8.25;;;23.10;99.90;;;;;;5070620;28;20082;-72
2023/10/01 10:33:13;;;;;;;22.60;9.02;;;23.30;99.90;;;;;;5070101;28;20074;-71
2023/10/01 10:35:46;;;;;;;21.92;9.27;;;23.50;99.90;;;;;;5069968;28;20488;-71
2023/10/01 10:38:51;;;;;;;26.95;9.30;;;23.40;99.90;;;;;;5069261;28;20070;-72
2023/10/01 10:41:17;;;;;;;22.65;8.77;;;23.50;99.90;;;;;;5071004;28;20478;-72
2023/10/01 10:44:09;;;;;;;20.23;8.48;;;23.40;99.90;;;;;;5071344;28;20017;-73
2023/10/01 10:47:02;;;;;;;19.67;7.97;;;23.40;99.90;;;;;;5070682;28;20071;-72
2023/10/01 10:49:52;;;;;;;21.80;9.02;;;23.40;99.90;;;;;;5062034;28;20025;-73
2023/10/01 10:52:32;;;;;;;17.35;8.57;;;23.30;99.90;;;;;;5068614;28;20032;-71
2023/10/01 10:55:17;;;;;;;20.15;8.27;;;23.20;99.90;;;;;;5070905;28;20021;-71
2023/10/01 10:57:48;;;;;;;19.97;8.40;;;23.20;99.90;;;;;;5060833;28;20029;-72
2023/10/01 11:00:24;;;;;;;19.95;8.82;;;23.30;99.90;;;;;;5064449;28;20478;-72
2023/10/01 11:02:56;;;;;;;23.60;9.38;;;23.40;99.90;;;;;;5066857;28;20424;-71
2023/10/01 11:05:21;;;;;;;22.02;8.32;;;23.40;99.90;;;;;;5059456;28;20037;-71
2023/10/01 11:07:58;;;;;;;25.27;9.05;;;23.50;99.90;;;;;;5066682;28;20025;-71
2023/10/01 11:10:27;;;;;;;18.92;8.27;;;23.60;99.90;;;;;;5070373;28;20048;-71
2023/10/01 11:12:54;;;;;;;24.63;8.57;;;23.70;99.90;;;;;;5070697;28;20017;-72
2023/10/01 11:15:23;;;;;;;19.98;8.10;;;23.70;99.90;;;;;;5064975;28;20028;-73
2023/10/01 11:18:01;;;;;;;18.23;8.25;;;23.80;99.90;;;;;;5070154;28;20029;-73
2023/10/01 11:20:33;;;;;;;18.23;8.48;;;23.90;99.90;;;;;;5070238;28;20348;-71
2023/10/01 11:23:08;;;;;;;20.10;8.48;;;24.00;99.90;;;;;;5070462;28;20028;-71
2023/10/01 11:25:35;;;;;;;22.58;8.95;;;24.00;99.90;;;;;;5070184;28;20074;-72
2023/10/01 11:28:06;;;;;;;18.52;8.35;;;24.00;99.90;;;;;;5068684;28;20032;-71
2023/10/01 11:30:34;;;;;;;23.10;8.05;;;24.00;99.90;;;;;;5070739;28;20024;-71
2023/10/01 11:33:01;;;;;;;20.00;8.32;;;24.10;99.90;;;;;;5070534;28;20032;-72
2023/10/01 11:35:59;;;;;;;21.67;8.85;;;24.20;99.90;;;;;;5070568;28;20026;-71
2023/10/01 11:38:26;;;;;;;22.05;8.25;;;24.10;99.90;;;;;;5057799;28;20112;-72
2023/10/01 11:41:07;;;;;;;20.63;8.65;;;24.10;99.90;;;;;;5085403;28;20115;-72
2023/10/01 11:43:58;;;;;;;21.60;8.38;;;24.10;99.90;;;;;;5070374;28;20086;-71
2023/10/01 11:47:31;;;;;;;20.15;9.55;;;24.10;99.90;;;;;;5073456;28;20020;-71
2023/10/01 11:49:15;;;;;;;21.48;8.55;;;24.10;99.90;;;;;;5068107;28;20039;-71
2023/10/01 11:51:45;;;;;;;23.67;9.10;;;24.00;99.90;;;;;;5073383;28;20422;-71
2023/10/01 11:54:19;;;;;;;25.75;9.38;;;24.10;99.90;;;;;;5073580;28;20464;-71
2023/10/01 11:57:05;;;;;;;20.38;8.50;;;24.20;99.90;;;;;;5073258;28;20040;-70
2023/10/01 11:59:33;;;;;;;23.00;9.02;;;24.20;99.90;;;;;;5073219;28;20395;-70
2023/10/01 12:02:20;;;;;;;23.13;9.30;;;24.30;99.90;;;;;;5073249;28;20028;-71
2023/10/01 12:04:45;;;;;;;21.30;9.23;;;24.30;99.90;;;;;;5066833;28;20056;-71
2023/10/01 12:07:15;;;;;;;22.95;8.75;;;24.30;99.90;;;;;;5072998;28;20035;-71
2023/10/01 12:09:52;;;;;;;20.88;8.73;;;24.30;99.90;;;;;;5065762;28;20031;-71
2023/10/01 12:12:25;;;;;;;20.88;8.38;;;24.20;99.90;;;;;;5071726;28;20024;-72
2023/10/01 12:17:29;;;;;;;20.38;8.75;;;24.30;99.90;;;;;;5068765;28;20119;-72
2023/10/01 12:20:03;;;;;;;22.23;8.30;;;24.40;99.90;;;;;;5066099;28;20050;-73
2023/10/01 12:22:30;;;;;;;18.70;8.63;;;24.40;99.90;;;;;;5073000;28;20533;-71
2023/10/01 12:24:59;;;;;;;21.70;9.13;;;24.40;99.90;;;;;;5072870;28;20487;-70
2023/10/01 12:27:37;;;;;;;24.50;8.55;;;24.50;99.90;;;;;;5073065;28;20462;-71
2023/10/01 12:30:29;;;;;;;21.02;8.93;;;24.50;99.90;;;;;;5063275;28;20030;-70
2023/10/01 12:33:02;;;;;;;18.63;8.07;;;24.60;99.90;;;;;;5069435;28;20027;-71
2023/10/01 12:35:29;;;;;;;18.38;7.82;;;24.60;99.90;;;;;;5072113;28;20017;-71
2023/10/01 12:40:40;;;;;;;;;;;24.70;99.90;;;;;;5072231;28;20143;-75
2023/10/01 12:45:52;;;;;;;21.75;8.95;;;24.70;99.90;;;;;;5065248;28;20059;-72
2023/10/01 12:48:20;;;;;;;20.92;8.90;;;24.80;99.90;;;;;;5069835;28;20040;-71
2023/10/01 12:51:03;;;;;;;23.10;8.60;;;24.80;99.90;;;;;;5062586;28;20046;-72
2023/10/01 12:53:47;;;;;;;21.33;8.13;;;24.60;99.90;;;;;;5070013;28;20036;-72
2023/10/01 12:56:14;;;;;;;21.02;8.77;;;24.50;99.90;;;;;;5070103;28;20044;-72
2023/10/01 12:58:43;;;;;;;21.88;8.48;;;24.40;99.90;;;;;;5071132;28;20041;-71
2023/10/01 13:01:24;;;;;;;21.52;9.02;;;24.40;99.90;;;;;;5070717;28;20035;-72
2023/10/01 13:03:52;;;;;;;22.58;8.30;;;24.40;99.90;;;;;;5070435;28;20025;-72
2023/10/01 13:06:18;;;;;;;18.65;7.95;;;24.30;99.90;;;;;;5066100;28;20514;-72
2023/10/01 13:08:44;;;;;;;20.10;8.50;;;24.30;99.90;;;;;;5070586;28;20024;-72
2023/10/01 13:13:54;;;;;;;19.67;9.00;;;24.40;99.90;;;;;;5071514;28;20494;-71
2023/10/01 13:16:19;;;;;;;19.83;8.75;;;24.40;99.90;;;;;;5071394;28;20021;-72
2023/10/01 13:18:45;;;;;;;21.10;8.90;;;24.40;99.90;;;;;;5069531;28;20024;-72
2023/10/01 13:21:11;;;;;;;19.75;8.18;;;24.40;99.90;;;;;;5069727;28;20077;-72
2023/10/01 13:23:43;;;;;;;20.77;8.18;;;24.40;99.90;;;;;;5071427;28;20055;-71
2023/10/01 13:26:19;;;;;;;20.45;8.35;;;24.30;99.90;;;;;;5071341;28;20087;-72
2023/10/01 13:28:46;;;;;;;20.27;8.45;;;24.30;99.90;;;;;;5071552;28;20058;-73
2023/10/01 13:39:48;;;;;;;21.13;8.40;;;24.40;99.90;;;;;;5073117;28;20036;-72
2023/10/01 14:09:49;;;;;;;24.33;8.55;;;24.20;99.90;;;;;;5067574;28;20038;-71
2023/10/01 14:15:05;;;;;;;20.40;8.70;;;24.30;99.90;;;;;;5061265;28;20035;-72
2023/10/01 14:17:32;;;;;;;21.40;8.32;;;24.20;99.90;;;;;;5070159;28;20036;-72
2023/10/01 14:19:58;;;;;;;21.45;9.00;;;24.20;99.90;;;;;;5070472;28;20492;-72
2023/10/01 14:22:24;;;;;;;19.95;8.32;;;24.20;99.90;;;;;;5058695;28;20043;-72
2023/10/01 14:24:52;;;;;;;19.33;8.77;;;24.20;99.90;;;;;;5063116;28;20036;-72
2023/10/01 14:27:24;;;;;;;20.58;8.63;;;24.20;99.90;;;;;;5059218;28;20017;-72
2023/10/01 14:30:23;;;;;;;24.00;8.77;;;24.10;99.90;;;;;;5070461;28;20442;-72